Time;durP1;ratioP1;P1;durP2;ratioP2;P2;SDS_P1;SDS_P2;PMS_P1;PMS_P2;Temp;Humidity;BMP_temperature;BMP_pressure;BME280_temperature;BME280_humidity;BME280_pressure;Samples;Min_cycle;Max_cycle;Signal;HPM_P1;HPM_P2
2021/04/07 00:01:12;;;;;;;13.70;9.40;;;;;;;8.47;54.71;92908.25;833841;71;31607;-80
2021/04/07 00:16:13;;;;;;;10.93;8.95;;;;;;;8.27;54.89;92920.87;835382;71;32025;-80
2021/04/07 00:31:15;;;;;;;12.25;9.60;;;;;;;8.09;55.35;92909.73;827295;71;32834;-81
2021/04/07 00:46:17;;;;;;;10.90;9.15;;;;;;;8.02;58.47;92879.38;834688;71;32845;-80
2021/04/07 01:01:14;;;;;;;11.70;9.35;;;;;;;7.84;58.37;92851.23;827718;71;31446;-80
2021/04/07 01:16:15;;;;;;;13.00;10.38;;;;;;;7.33;58.78;92840.55;827516;71;33331;-80
2021/04/07 01:31:18;;;;;;;14.75;9.53;;;;;;;7.42;58.56;92866.11;833850;71;32917;-80
2021/04/07 01:46:19;;;;;;;14.25;9.33;;;;;;;7.47;58.18;92895.73;827292;71;32765;-79
2021/04/07 02:01:20;;;;;;;12.35;10.88;;;;;;;7.21;59.21;92904.30;827953;71;32726;-81
2021/04/07 02:16:40;;;;;;;13.62;11.70;;;;;;;7.06;60.55;92928.99;787467;75;33158;-82
2021/04/07 02:31:16;;;;;;;12.82;9.90;;;;;;;6.67;61.28;92950.13;828524;71;32775;-79
2021/04/07 02:46:17;;;;;;;7.28;6.53;;;;;;;6.11;61.93;92945.78;827320;71;32974;-79
2021/04/07 03:01:52;;;;;;;4.67;4.15;;;;;;;5.69;62.47;92989.94;834335;71;32687;-82
2021/04/07 03:16:21;;;;;;;3.35;3.12;;;;;;;5.36;62.99;93029.13;835388;71;30833;-78
2021/04/07 03:31:25;;;;;;;3.15;2.90;;;;;;;5.13;63.80;93042.55;835055;71;32702;-78
2021/04/07 03:46:10;;;;;;;2.50;2.40;;;;;;;4.86;63.12;93060.21;828758;71;30866;-80
2021/04/07 04:01:19;;;;;;;2.15;2.05;;;;;;;4.39;63.25;93124.59;836066;70;33057;-81
2021/04/07 04:16:17;;;;;;;1.57;1.47;;;;;;;4.09;62.92;93166.55;829110;70;32680;-83
2021/04/07 04:31:26;;;;;;;2.00;1.90;;;;;;;3.82;65.99;93208.14;834118;71;32736;-80
2021/04/07 04:46:17;;;;;;;1.90;1.80;;;;;;;3.62;68.09;93241.55;833574;71;32807;-77
2021/04/07 05:01:15;;;;;;;2.50;2.40;;;;;;;5.38;67.29;93241.56;827047;71;32717;-75
2021/04/07 05:16:16;;;;;;;2.33;2.22;;;;;;;4.31;70.25;93261.53;826749;71;32729;-75
2021/04/07 05:31:10;;;;;;;2.70;2.50;;;;;;;4.03;71.47;93255.91;833481;71;29845;-76
2021/04/07 05:46:16;;;;;;;2.98;2.77;;;;;;;3.95;71.38;93303.48;819969;71;32871;-77
2021/04/07 06:01:17;;;;;;;3.05;2.85;;;;;;;3.86;71.37;93314.20;826992;71;32760;-76
2021/04/07 06:16:19;;;;;;;4.35;3.90;;;;;;;4.04;70.90;93326.23;826963;71;32832;-77
2021/04/07 06:31:12;;;;;;;4.60;4.20;;;;;;;3.92;71.67;93345.53;833628;71;30262;-74
2021/04/07 06:46:14;;;;;;;4.35;3.95;;;;;;;3.93;70.87;93369.13;825092;71;32698;-75
2021/04/07 07:01:14;;;;;;;4.15;3.67;;;;;;;3.84;71.48;93390.77;827795;71;32046;-76
2021/04/07 07:16:10;;;;;;;5.50;3.55;;;;;;;9.88;72.12;93336.73;827768;71;28688;-75
2021/04/07 07:31:29;;;;;;;6.55;5.12;;;;;;;8.54;56.96;93409.92;827480;71;31220;-77
2021/04/07 07:46:17;;;;;;;4.30;3.92;;;;;;;6.04;62.51;93418.52;827806;71;31756;-77
2021/04/07 08:01:20;;;;;;;4.80;4.40;;;;;;;5.28;65.14;93454.97;827562;71;32567;-75
2021/04/07 08:16:08;;;;;;;4.50;4.20;;;;;;;5.10;66.33;93455.95;827694;71;28858;-75
2021/04/07 08:31:17;;;;;;;4.45;4.15;;;;;;;5.18;66.53;93481.88;827501;71;31431;-77
2021/04/07 08:46:17;;;;;;;7.80;6.15;;;;;;;5.08;66.89;93485.89;826426;71;31735;-77
2021/04/07 09:01:39;;;;;;;7.60;6.00;;;;;;;5.14;66.47;93512.84;826489;71;28803;-77
2021/04/07 09:16:10;;;;;;;8.10;6.47;;;;;;;4.92;66.27;93538.03;827321;71;28647;-76
2021/04/07 09:31:19;;;;;;;6.50;5.28;;;;;;;5.06;66.72;93529.05;834839;71;28298;-78
2021/04/07 09:46:09;;;;;;;6.28;5.70;;;;;;;4.83;67.87;93574.02;827307;71;28935;-79
2021/04/07 10:01:17;;;;;;;5.87;5.28;;;;;;;4.94;68.14;93579.35;826628;71;32204;-76
2021/04/07 10:16:15;;;;;;;7.15;6.40;;;;;;;5.16;67.93;93588.75;827198;71;31700;-76
2021/04/07 10:31:15;;;;;;;5.97;5.47;;;;;;;5.22;68.37;93604.55;827125;71;31953;-75
2021/04/07 10:46:13;;;;;;;6.33;5.72;;;;;;;5.70;67.28;93609.52;827248;71;30650;-76
2021/04/07 11:01:08;;;;;;;6.67;6.08;;;;;;;6.79;63.16;93618.98;827445;71;28491;-76
2021/04/07 13:01:51;;;;;;;;;;;;;;;;;;;;;
2021/04/07 14:01:08;;;;;;;9.65;8.00;;;;;;;9.87;58.18;93648.27;833455;71;30167;-80
2021/04/07 14:16:15;;;;;;;7.17;6.45;;;;;;;11.13;49.91;93667.18;827550;71;32660;-79
2021/04/07 14:31:09;;;;;;;5.42;4.70;;;;;;;10.03;45.28;93701.80;827360;71;30357;-76
2021/04/07 14:46:19;;;;;;;6.03;5.42;;;;;;;8.96;46.60;93721.72;833379;71;33159;-78
2021/04/07 15:01:44;;;;;;;5.20;4.70;;;;;;;7.86;47.34;93740.09;827187;71;33037;-78
2021/04/07 15:16:21;;;;;;;6.20;5.60;;;;;;;7.25;47.83;93787.02;828134;71;32681;-80
2021/04/07 15:31:29;;;;;;;9.68;7.30;;;;;;;6.59;50.83;93824.66;833994;71;32778;-77
2021/04/07 15:46:15;;;;;;;9.25;8.00;;;;;;;7.79;51.98;93843.09;816457;71;33807;-77
2021/04/07 16:01:13;;;;;;;9.53;8.10;;;;;;;6.20;57.39;93866.48;827481;71;32779;-76
2021/04/07 16:16:14;;;;;;;11.15;8.45;;;;;;;5.31;60.39;93887.44;833639;71;32729;-77
2021/04/07 16:31:09;;;;;;;11.57;8.93;;;;;;;4.81;61.97;93918.62;827728;71;30044;-76
2021/04/07 16:46:19;;;;;;;8.85;7.40;;;;;;;4.41;65.35;93948.31;826858;71;32715;-77
2021/04/07 17:46:57;;;;;;;7.03;6.00;;;;;;;3.47;63.65;94021.69;794247;74;32873;-83
